Latest Coastal Weather Observations for Robe Airport

IDS60701

Issued at 2:21 am CDT Monday 20 November 2017 (issued every 10 minutes, with the page automatically refreshed every 10 minutes)

About coastal observations | Map of coastal stations | Coastal observations for SA | Marine services | Other Formats
Station Details ID: 026105 Name: ROBE AIRFIELD Lat: -37.18 Lon: 139.81 Height: 3.0 m
Data from the previous 72 hours. | See also: Recent months at Robe Airport
Date/Time
CDT
Temp
°C
Wind Pressure Rain since
9am
mm
Weather Cloud Vis
km
Sea
Height
m
Swell
Dir  Spd
kts
Gust
kts
hPa Trend Height
m
Period
s
Dir
20/02:00am 18.0 ENE 4 6 1016.6 - 0.0 - - - - - - -
20/01:30am 18.6 ENE 5 8 1016.5 - 0.0 - - - - - - -
20/01:00am 19.5 ENE 5 7 1016.6 - 0.0 - - - - - - -
20/12:30am 19.9 E 6 9 1016.6 - 0.0 - - - - - - -
20/12:00am 20.6 E 7 9 1016.5 - 0.0 - - - - - - -
 
Date/Time
CDT
Temp
°C
Wind Pressure Rain since
9am
mm
Weather Cloud Vis
km
Sea
Height
m
Swell
Dir  Spd
kts
Gust
kts
hPa Trend Height
m
Period
s
Dir
19/11:30pm 20.5 E 5 10 1016.4 - 0.0 - - - - - - -
19/11:00pm 19.8 E 5 7 1016.5 - 0.0 - - - - - - -
19/10:30pm 19.7 ESE 5 6 1016.5 - 0.0 - - - - - - -
19/10:00pm 20.1 ESE 4 5 1016.5 - 0.0 - - - - - - -
19/09:30pm 20.8 ESE 4 5 1016.5 - 0.0 - - - - - - -
19/09:00pm 21.4 ESE 5 6 1016.4 - 0.0 - - - - - - -
19/08:30pm 23.0 E 4 5 1016.0 - 0.0 - - - - - - -
19/08:00pm 23.6 E 4 5 1015.8 - 0.0 - - - - - - -
19/07:30pm 25.8 E 5 8 1015.4 - 0.0 - - - - - - -
19/07:00pm 27.3 E 7 10 1015.1 - 0.0 - - - - - - -
19/06:30pm 28.1 E 7 13 1015.1 - 0.0 - - - - - - -
19/06:00pm 28.4 ENE 6 15 1015.0 - 0.0 - - - - - - -
19/05:30pm 29.1 ENE 8 13 1015.0 - 0.0 - - - - - - -
19/05:00pm 28.4 ENE 8 11 1015.0 - 0.0 - - - - - - -
19/04:30pm 28.1 E 9 15 1015.1 - 0.0 - - - - - - -
19/04:00pm 27.8 ENE 9 16 1015.4 - 0.0 - - - - - - -
19/03:30pm 27.2 NE 7 13 1015.8 - 0.0 - - - - - - -
19/03:00pm 27.6 ENE 7 10 1016.2 - 0.0 - - - - - - -
19/02:30pm 27.4 NE 7 12 1016.8 - 0.0 - - - - - - -
19/02:00pm 26.8 NE 9 15 1017.0 - 0.0 - - - - - - -
19/01:30pm 27.9 NE 11 17 1017.1 - 0.0 - - - - - - -
19/01:00pm 25.9 ENE 9 14 1017.4 - 0.0 - - - - - - -
19/12:30pm 27.5 NE 9 17 1017.6 - 0.0 - - - - - - -
19/12:00pm 27.1 NE 9 16 1017.5 - 0.0 - - - - - - -
19/11:30am 26.3 NE 10 15 1017.5 - 0.0 - - - - - - -
19/11:00am 25.8 NE 12 18 1017.5 - 0.0 - - - - - - -
19/10:30am 24.9 NE 12 18 1017.5 - 0.0 - - - - - - -
19/10:00am 24.1 NE 13 19 1017.4 - 0.0 - - - - - - -
19/09:30am 23.0 NE 13 18 1017.5 - 0.0 - - - - - - -
19/09:00am 22.5 ENE 11 16 1017.6 - 0.0 - - - - - - -
19/08:30am 20.7 NE 9 14 1017.6 - 0.0 - - - - - - -
19/08:00am 19.2 ENE 8 12 1017.6 - 0.0 - - - - - - -
19/07:30am 17.6 NE 6 8 1017.6 - 0.0 - - - - - - -
19/07:00am 16.0 E 3 7 1017.4 - 0.0 - - - - - - -
19/06:30am 14.3 E 4 5 1017.1 - 0.0 - - - - - - -
19/06:00am 13.4 E 3 4 1016.7 - 0.0 - - - - - - -
19/05:30am 13.1 ESE 3 3 1016.3 - 0.0 - - - - - - -
19/05:00am 13.7 ESE 4 5 1015.8 - 0.0 - - - - - - -
19/04:30am 13.7 ESE 6 8 1015.8 - 0.0 - - - - - - -
19/04:00am 13.9 ESE 6 8 1015.7 - 0.0 - - - - - - -
19/03:30am 14.2 ESE 7 11 1015.5 - 0.0 - - - - - - -
19/03:00am 14.1 SE 5 8 1015.7 - 0.0 - - - - - - -
19/02:30am 14.5 SE 7 11 1015.7 - 0.0 - - - - - - -
19/02:00am 14.8 SE 8 10 1015.6 - 0.0 - - - - - - -
19/01:30am 14.7 SE 6 9 1015.9 - 0.0 - - - - - - -
19/01:00am 14.8 SE 7 10 1016.1 - 0.0 - - - - - - -
19/12:30am 14.9 SSE 8 11 1016.2 - 0.0 - - - - - - -
19/12:00am 15.0 SE 7 10 1016.5 - 0.0 - - - - - - -
 
Date/Time
CDT
Temp
°C
Wind Pressure Rain since
9am
mm
Weather Cloud Vis
km
Sea
Height
m
Swell
Dir  Spd
kts
Gust
kts
hPa Trend Height
m
Period
s
Dir
18/11:30pm 14.4 SSE 6 8 1017.0 - 0.0 - - - - - - -
18/11:00pm 14.7 SSE 8 11 1017.4 - 0.0 - - - - - - -
18/10:30pm 14.9 SSE 9 12 1017.4 - 0.0 - - - - - - -
18/10:00pm 14.7 SSE 9 13 1017.3 - 0.0 - - - - - - -
18/09:30pm 15.1 SSE 11 17 1017.3 - 0.0 - - - - - - -
18/09:00pm 15.1 SSE 13 18 1017.1 - 0.0 - - - - - - -
18/08:30pm 15.2 SSE 13 19 1016.8 - 0.0 - - - - - - -
18/08:00pm 15.4 S 10 16 1016.7 - 0.0 - - - - - - -
18/07:30pm 15.6 S 12 16 1016.4 - 0.0 - - - - - - -
18/07:00pm 17.2 S 9 12 1015.9 - 0.0 - - - - - - -
18/06:30pm 17.7 S 10 13 1015.7 - 0.0 - - - - - - -
18/06:00pm 17.8 SSE 11 14 1015.6 - 0.0 - - - - - - -
18/05:30pm 17.8 SSW 12 15 1015.6 - 0.0 - - - - - - -
18/05:00pm 18.1 S 11 15 1015.5 - 0.0 - - - - - - -
18/04:30pm 17.9 S 11 15 1015.9 - 0.0 - - - - - - -
18/04:00pm 18.3 SSW 11 14 1016.1 - 0.0 - - - - - - -
18/03:30pm 18.7 SSW 9 14 1016.5 - 0.0 - - - - - - -
18/03:00pm 18.9 S 9 11 1016.4 - 0.0 - - - - - - -
18/02:30pm 18.6 SSW 11 15 1016.7 - 0.0 - - - - - - -
18/02:00pm 19.0 SW 9 14 1016.7 - 0.0 - - - - - - -
18/01:30pm 20.4 SSW 7 11 1016.4 - 0.0 - - - - - - -
18/01:00pm 20.2 S 6 11 1016.6 - 0.0 - - - - - - -
18/12:30pm 20.1 S 6 11 1016.5 - 0.0 - - - - - - -
18/12:00pm 20.6 S 4 8 1016.5 - 0.0 - - - - - - -
18/11:30am 19.4 S 2 4 1016.7 - 0.0 - - - - - - -
18/11:00am 19.5 SE 2 5 1016.7 - 0.0 - - - - - - -
18/10:30am 17.0 ESE 2 5 1017.0 - 0.0 - - - - - - -
18/10:00am 15.9 ESE 2 3 1016.8 - 0.0 - - - - - - -
18/09:30am 15.4 CALM 0 0 1016.7 - 0.0 - - - - - - -
18/09:00am 14.9 ESE 1 2 1016.7 - 0.2 - - - - - - -
18/08:30am 14.5 CALM 0 0 1016.5 - 0.2 - - - - - - -
18/08:00am 14.2 ESE 2 4 1016.0 - 0.2 - - - - - - -
18/07:30am 14.3 CALM 0 1 1015.8 - 0.2 - - - - - - -
18/07:00am 14.2 CALM 0 0 1015.4 - 0.2 - - - - - - -
18/06:30am 14.0 CALM 0 0 1015.3 - 0.2 - - - - - - -
18/06:00am 13.9 ESE 3 4 1014.9 - 0.2 - - - - - - -
18/05:30am 14.2 SE 2 3 1014.4 - 0.2 - - - - - - -
18/05:00am 14.1 SE 4 6 1014.2 - 0.2 - - - - - - -
18/04:30am 14.2 SE 5 8 1013.8 - 0.2 - - - - - - -
18/04:00am 14.1 SE 6 9 1013.5 - 0.2 - - - - - - -
18/03:30am 14.2 SSE 4 6 1013.8 - 0.2 - - - - - - -
18/03:00am 14.2 SE 4 8 1014.1 - 0.2 - - - - - - -
18/02:30am 14.1 S 6 9 1014.2 - 0.2 - - - - - - -
18/02:00am 14.2 S 7 9 1014.2 - 0.2 - - - - - - -
18/01:30am 14.3 SSE 6 9 1014.7 - 0.2 - - - - - - -
18/01:00am 14.4 S 8 11 1014.9 - 0.2 - - - - - - -
18/12:30am 14.6 S 9 12 1015.0 - 0.2 - - - - - - -
18/12:00am 14.6 SSE 7 10 1014.9 - 0.2 - - - - - - -
 
Date/Time
CDT
Temp
°C
Wind Pressure Rain since
9am
mm
Weather Cloud Vis
km
Sea
Height
m
Swell
Dir  Spd
kts
Gust
kts
hPa Trend Height
m
Period
s
Dir
17/11:30pm 14.5 S 8 11 1014.8 - 0.2 - - - - - - -
17/11:00pm 14.5 S 5 7 1014.7 - 0.2 - - - - - - -
17/10:30pm 14.5 S 7 9 1014.7 - 0.2 - - - - - - -
17/10:00pm 14.6 SSE 6 10 1014.5 - 0.2 - - - - - - -
17/09:30pm 14.7 S 9 11 1014.4 - 0.2 - - - - - - -
17/09:00pm 14.7 S 8 11 1014.0 - 0.2 - - - - - - -
17/08:30pm 14.9 S 8 11 1013.9 - 0.2 - - - - - - -
17/08:00pm 15.1 S 9 12 1013.7 - 0.2 - - - - - - -
17/07:30pm 15.3 S 9 12 1013.5 - 0.2 - - - - - - -
17/07:00pm 15.7 S 10 14 1013.3 - 0.2 - - - - - - -
17/06:30pm 16.4 S 9 12 1013.0 - 0.2 - - - - - - -
17/06:00pm 17.3 SSE 8 12 1012.8 - 0.2 - - - - - - -
17/05:30pm 17.2 SSE 10 13 1012.7 - 0.2 - - - - - - -
17/05:00pm 17.2 SSE 10 14 1012.7 - 0.2 - - - - - - -
17/04:30pm 17.2 S 10 14 1012.6 - 0.2 - - - - - - -
17/04:00pm 17.7 S 12 15 1012.6 - 0.2 - - - - - - -
17/03:30pm 18.2 S 12 15 1012.5 - 0.2 - - - - - - -
17/03:00pm 18.5 S 12 16 1012.5 - 0.2 - - - - - - -
17/02:30pm 18.3 S 13 17 1012.4 - 0.2 - - - - - - -
17/02:00pm 18.7 SSW 12 15 1012.4 - 0.2 - - - - - - -
17/01:30pm 18.5 S 10 14 1012.4 - 0.2 - - - - - - -
17/01:00pm 18.8 S 9 15 1012.4 - 0.2 - - - - - - -
17/12:30pm 19.6 SE 8 13 1012.4 - 0.2 - - - - - - -
17/12:00pm 18.7 SE 8 13 1012.6 - 0.0 - - - - - - -
17/11:30am 18.5 SE 7 11 1012.6 - 0.0 - - - - - - -
17/11:00am 17.8 SE 6 11 1012.7 - 0.0 - - - - - - -
17/10:30am 18.1 E 7 10 1012.6 - 0.0 - - - - - - -
17/10:00am 17.1 ESE 7 11 1012.6 - 0.0 - - - - - - -
17/09:30am 16.7 ESE 7 10 1012.7 - 0.0 - - - - - - -
17/09:00am 17.4 E 7 10 1012.5 - 17.2 - - - - - - -
17/08:30am 16.6 ESE 8 10 1012.3 - 17.2 - - - - - - -
17/08:00am 15.5 ESE 9 13 1012.1 - 17.2 - - - - - - -
17/07:30am 14.8 SE 7 10 1011.8 - 17.2 - - - - - - -
17/07:00am 14.4 ESE 5 7 1011.5 - 17.2 - - - - - - -
17/06:30am 13.8 SE 4 6 1011.4 - 17.2 - - - - - - -
17/06:00am 13.7 SE 4 6 1011.1 - 17.2 - - - - - - -
17/05:30am 14.3 ESE 6 8 1010.5 - 17.2 - - - - - - -
17/05:00am 14.2 SE 8 11 1010.1 - 17.2 - - - - - - -
17/04:30am 14.4 SE 8 13 1009.9 - 17.2 - - - - - - -
17/04:00am 14.5 SSE 8 12 1009.9 - 17.2 - - - - - - -
17/03:30am 14.8 SSE 7 10 1009.8 - 17.2 - - - - - - -
17/03:00am 15.2 SSE 8 11 1009.8 - 17.2 Recent precip. - - - - - -
17/02:30am 15.2 SSE 9 13 1009.9 - 17.2 - - - - - - -

Other Formats:

Comma delimited format used in spreadsheet applications
http://www.bom.gov.au/fwo/IDS60701/IDS60701.95816.axf

JavaScript Object Notation format (JSON) in row-major order
http://www.bom.gov.au/fwo/IDS60701/IDS60701.95816.json